createdAt,value
2022-11-01T00:02:00.171Z,21.00
2022-11-01T00:05:07.436Z,34.90
2022-11-01T00:08:15.870Z,30.50
2022-11-01T00:11:23.658Z,19.52
2022-11-01T00:14:29.023Z,20.63
2022-11-01T00:17:36.920Z,23.45
2022-11-01T00:20:45.268Z,28.42
2022-11-01T00:23:53.176Z,17.63
2022-11-01T00:27:01.207Z,19.92
2022-11-01T00:30:07.139Z,20.48
2022-11-01T00:33:15.591Z,15.82
2022-11-01T00:36:23.633Z,14.52
2022-11-01T00:39:31.478Z,22.33
2022-11-01T00:42:36.499Z,20.70
2022-11-01T00:45:42.161Z,22.45
2022-11-01T00:48:49.988Z,36.25
2022-11-01T00:51:57.860Z,26.70
2022-11-01T00:55:03.141Z,37.28
2022-11-01T00:58:10.414Z,29.90
2022-11-01T01:01:15.552Z,26.77
2022-11-01T01:04:24.833Z,24.27
2022-11-01T01:07:30.220Z,18.05
2022-11-01T01:10:35.430Z,17.30
2022-11-01T01:13:40.706Z,15.75
2022-11-01T01:16:46.281Z,18.85
2022-11-01T01:19:54.359Z,16.23
2022-11-01T01:23:00.642Z,18.90
2022-11-01T01:26:08.413Z,20.83
2022-11-01T01:29:14.101Z,23.13
2022-11-01T01:32:19.827Z,17.60
2022-11-01T01:35:30.385Z,25.50
2022-11-01T01:38:35.410Z,18.60
2022-11-01T01:41:53.515Z,15.50
2022-11-01T01:45:16.252Z,15.52
2022-11-01T01:48:23.300Z,19.83
2022-11-01T01:51:31.743Z,17.40
2022-11-01T01:54:38.473Z,18.83
2022-11-01T01:57:46.568Z,20.00
2022-11-01T02:00:54.294Z,24.88
2022-11-01T02:03:59.801Z,17.23
2022-11-01T02:07:07.917Z,17.60
2022-11-01T02:10:17.171Z,17.33
2022-11-01T02:13:24.413Z,13.95
2022-11-01T02:16:42.548Z,12.95
2022-11-01T02:20:08.103Z,9.27
2022-11-01T02:23:25.826Z,11.23
2022-11-01T02:26:52.470Z,8.35
2022-11-01T02:30:14.928Z,14.07
2022-11-01T02:33:35.212Z,12.63
2022-11-01T02:36:48.086Z,13.73
2022-11-01T02:39:55.672Z,12.40
2022-11-01T02:43:03.487Z,9.50
2022-11-01T02:46:23.604Z,17.17
2022-11-01T02:49:30.455Z,16.65
2022-11-01T02:52:44.895Z,16.33
2022-11-01T02:55:50.175Z,13.25
2022-11-01T02:58:56.749Z,12.82
2022-11-01T03:02:03.708Z,14.13
2022-11-01T03:05:10.760Z,11.93
2022-11-01T03:08:19.701Z,10.75
2022-11-01T03:11:29.281Z,7.80
2022-11-01T03:14:37.387Z,7.70
2022-11-01T03:17:47.421Z,9.55
2022-11-01T03:20:56.747Z,7.57
2022-11-01T03:24:10.017Z,10.73
2022-11-01T03:27:20.948Z,10.93
2022-11-01T03:30:26.741Z,12.23
2022-11-01T03:33:34.149Z,11.38
2022-11-01T03:36:43.226Z,11.75
2022-11-01T03:39:53.021Z,11.48
2022-11-01T03:43:05.393Z,13.70
2022-11-01T03:46:11.232Z,13.73
2022-11-01T03:49:19.652Z,18.42
2022-11-01T03:52:27.356Z,13.45
2022-11-01T03:55:35.837Z,17.40
2022-11-01T03:58:46.882Z,20.13
2022-11-01T04:01:54.516Z,23.40
2022-11-01T04:05:01.026Z,19.70
2022-11-01T04:08:06.480Z,23.88
2022-11-01T04:11:14.409Z,30.65
2022-11-01T04:14:32.549Z,24.13
2022-11-01T04:17:49.761Z,24.88
2022-11-01T04:20:55.718Z,26.42
2022-11-01T04:24:03.409Z,28.38
2022-11-01T04:27:18.608Z,26.13
2022-11-01T04:33:30.484Z,26.27
2022-11-01T04:36:39.939Z,29.00
2022-11-01T04:39:45.764Z,29.90
2022-11-01T04:42:53.512Z,24.38
2022-11-01T04:46:02.000Z,26.95
2022-11-01T04:49:07.021Z,32.17
2022-11-01T04:52:13.088Z,29.45
2022-11-01T04:55:18.483Z,28.02
2022-11-01T04:58:27.680Z,32.10
2022-11-01T05:01:33.345Z,29.13
2022-11-01T05:04:41.385Z,28.10
2022-11-01T05:07:48.891Z,28.60
2022-11-01T05:10:55.689Z,25.77
2022-11-01T05:14:03.947Z,26.05
2022-11-01T05:17:09.341Z,31.17
2022-11-01T05:20:14.719Z,26.33
2022-11-01T05:23:20.154Z,28.65
2022-11-01T05:26:28.877Z,26.25
2022-11-01T05:29:37.061Z,28.50
2022-11-01T05:32:44.786Z,23.25
2022-11-01T05:35:51.772Z,23.35
2022-11-01T05:39:01.305Z,27.83
2022-11-01T05:42:07.105Z,21.73
2022-11-01T05:45:17.865Z,39.65
2022-11-01T05:48:23.469Z,28.23
2022-11-01T05:51:30.147Z,35.83
2022-11-01T05:54:36.086Z,27.85
2022-11-01T05:57:41.140Z,38.65
2022-11-01T06:00:50.145Z,30.17
2022-11-01T06:03:55.828Z,36.50
2022-11-01T06:07:02.258Z,25.48
2022-11-01T06:10:08.508Z,42.40
2022-11-01T06:13:16.980Z,32.08
2022-11-01T06:16:25.573Z,38.90
2022-11-01T06:19:36.452Z,33.45
2022-11-01T06:22:41.935Z,20.70
2022-11-01T06:25:47.656Z,33.78
2022-11-01T06:28:53.223Z,19.90
2022-11-01T06:32:03.426Z,23.23
2022-11-01T06:35:11.992Z,24.38
2022-11-01T06:38:17.875Z,19.60
2022-11-01T06:41:23.260Z,29.50
2022-11-01T06:44:29.128Z,24.98
2022-11-01T06:51:06.495Z,18.27
2022-11-01T06:54:12.034Z,21.48
2022-11-01T06:57:18.061Z,19.08
2022-11-01T07:00:26.112Z,23.33
2022-11-01T07:03:35.329Z,19.15
2022-11-01T07:06:40.370Z,18.67
2022-11-01T07:09:50.581Z,21.38
2022-11-01T07:13:00.272Z,21.08
2022-11-01T07:16:05.960Z,17.52
2022-11-01T07:19:15.253Z,21.48
2022-11-01T07:22:32.641Z,24.42
2022-11-01T07:25:38.316Z,23.63
2022-11-01T07:28:44.521Z,21.42
2022-11-01T07:31:51.088Z,21.67
2022-11-01T07:35:01.815Z,17.92
2022-11-01T07:38:11.603Z,16.80
2022-11-01T07:41:25.483Z,18.63
2022-11-01T07:44:30.446Z,20.48
2022-11-01T07:47:37.061Z,19.73
2022-11-01T07:50:45.859Z,18.77
2022-11-01T07:53:51.719Z,17.13
2022-11-01T07:56:57.095Z,18.42
2022-11-01T08:00:06.239Z,16.20
2022-11-01T08:03:13.045Z,18.40
2022-11-01T08:06:35.056Z,18.10
2022-11-01T08:09:42.629Z,15.73
2022-11-01T08:12:50.567Z,15.32
2022-11-01T08:15:57.820Z,18.35
2022-11-01T08:19:06.040Z,16.17
2022-11-01T08:22:20.953Z,23.05
2022-11-01T08:26:01.153Z,18.67
2022-11-01T08:32:56.901Z,16.77
2022-11-01T08:36:17.609Z,18.95
2022-11-01T08:50:54.787Z,14.18
2022-11-01T08:57:18.605Z,19.38
2022-11-01T09:03:45.007Z,15.55
2022-11-01T09:06:56.733Z,14.35
2022-11-01T09:10:02.151Z,17.92
2022-11-01T09:13:31.317Z,14.77
2022-11-01T09:16:37.190Z,17.13
2022-11-01T09:19:46.138Z,14.38
2022-11-01T09:22:56.665Z,17.45
2022-11-01T09:26:05.099Z,15.20
2022-11-01T09:29:14.800Z,14.32
2022-11-01T09:32:20.710Z,16.77
2022-11-01T09:35:30.080Z,15.15
2022-11-01T09:38:39.548Z,16.17
2022-11-01T09:41:47.869Z,17.77
2022-11-01T09:44:55.854Z,14.50
2022-11-01T09:48:03.291Z,16.50
2022-11-01T09:51:14.550Z,17.02
2022-11-01T09:54:25.467Z,15.45
2022-11-01T09:57:39.456Z,14.98
2022-11-01T10:00:49.453Z,17.30
2022-11-01T10:04:05.643Z,12.95
2022-11-01T10:07:14.208Z,18.60
2022-11-01T10:10:36.654Z,16.73
2022-11-01T10:13:47.040Z,17.02
2022-11-01T10:16:56.000Z,14.13
2022-11-01T10:20:04.921Z,15.57
2022-11-01T10:23:11.646Z,19.13
2022-11-01T10:26:21.416Z,20.48
2022-11-01T10:29:33.877Z,15.77
2022-11-01T10:32:42.437Z,17.83
2022-11-01T10:35:52.508Z,17.70
2022-11-01T10:42:31.040Z,18.05
2022-11-01T10:45:36.444Z,16.33
2022-11-01T10:48:45.824Z,16.80
2022-11-01T10:51:54.100Z,18.08
2022-11-01T10:55:04.258Z,18.45
2022-11-01T10:58:28.948Z,18.70
2022-11-01T11:01:39.575Z,20.05
2022-11-01T11:04:45.393Z,19.88
2022-11-01T11:07:56.448Z,17.25
2022-11-01T11:11:07.895Z,18.90
2022-11-01T11:14:16.904Z,14.30
2022-11-01T11:17:23.792Z,20.60
2022-11-01T11:20:30.663Z,19.98
2022-11-01T11:23:38.524Z,20.50
2022-11-01T11:26:53.107Z,19.20
2022-11-01T11:30:05.475Z,22.00
2022-11-01T11:33:17.926Z,24.45
2022-11-01T11:36:29.996Z,23.63
2022-11-01T11:39:37.659Z,25.17
2022-11-01T11:42:44.387Z,23.17
2022-11-01T11:46:13.384Z,23.55
2022-11-01T11:49:32.779Z,21.98
2022-11-01T11:52:42.691Z,24.13
2022-11-01T11:55:49.752Z,22.38
2022-11-01T11:58:59.200Z,27.50
2022-11-01T12:02:12.008Z,27.05
2022-11-01T12:05:22.567Z,26.40
2022-11-01T12:08:31.283Z,23.33
2022-11-01T12:11:44.385Z,24.73
2022-11-01T12:14:51.200Z,23.77
2022-11-01T12:18:17.031Z,25.60
2022-11-01T12:21:24.178Z,28.33
2022-11-01T12:24:41.181Z,22.83
2022-11-01T12:27:53.997Z,26.73
2022-11-01T12:31:02.554Z,26.90
2022-11-01T12:34:17.569Z,27.40
2022-11-01T12:37:26.717Z,29.00
2022-11-01T12:40:34.801Z,21.58
2022-11-01T12:43:49.713Z,19.35
2022-11-01T12:46:57.567Z,25.92
2022-11-01T12:50:17.473Z,29.15
2022-11-01T12:53:27.104Z,26.45
2022-11-01T12:56:33.571Z,22.08
2022-11-01T12:59:43.148Z,28.40
2022-11-01T13:03:00.889Z,24.42
2022-11-01T13:06:19.031Z,25.13
2022-11-01T13:09:26.720Z,25.33
2022-11-01T13:12:38.840Z,27.42
2022-11-01T13:16:01.476Z,23.77
2022-11-01T13:19:08.638Z,25.00
2022-11-01T13:22:22.773Z,25.30
2022-11-01T13:25:34.499Z,31.63
2022-11-01T13:28:49.137Z,28.02
2022-11-01T13:32:01.245Z,30.65
2022-11-01T13:35:29.114Z,31.10
2022-11-01T13:38:41.717Z,28.45
2022-11-01T13:41:52.232Z,23.90
2022-11-01T13:45:16.639Z,26.23
2022-11-01T13:48:28.502Z,27.67
2022-11-01T13:51:38.233Z,27.38
2022-11-01T13:54:55.171Z,27.98
2022-11-01T13:58:03.439Z,32.35
2022-11-01T14:01:26.444Z,34.40
2022-11-01T14:07:39.956Z,29.95
2022-11-01T14:10:51.949Z,26.42
2022-11-01T14:13:57.960Z,33.55
2022-11-01T14:17:36.543Z,31.70
2022-11-01T14:20:49.089Z,31.27
2022-11-01T14:24:02.004Z,32.30
2022-11-01T14:27:24.577Z,36.35
2022-11-01T14:30:36.049Z,33.72
2022-11-01T14:33:44.682Z,35.88
2022-11-01T14:36:53.239Z,39.80
2022-11-01T14:40:04.854Z,36.88
2022-11-01T14:43:14.765Z,37.60
2022-11-01T14:46:24.713Z,39.58
2022-11-01T14:49:33.668Z,40.13
2022-11-01T14:52:43.500Z,36.63
2022-11-01T14:55:48.437Z,43.85
2022-11-01T14:58:54.083Z,36.97
2022-11-01T15:02:04.060Z,42.50
2022-11-01T15:05:13.357Z,39.65
2022-11-01T15:08:25.853Z,37.42
2022-11-01T15:11:31.984Z,40.08
2022-11-01T15:14:38.405Z,47.30
2022-11-01T15:17:52.807Z,42.03
2022-11-01T15:20:59.086Z,39.58
2022-11-01T15:24:05.042Z,41.58
2022-11-01T15:27:13.248Z,43.38
2022-11-01T15:30:25.837Z,53.58
2022-11-01T15:33:34.378Z,42.95
2022-11-01T15:36:43.573Z,40.00
2022-11-01T15:39:49.525Z,45.00
2022-11-01T15:42:58.687Z,48.67
2022-11-01T15:46:06.326Z,46.20
2022-11-01T15:49:20.609Z,53.40
2022-11-01T15:52:48.346Z,37.38
2022-11-01T15:55:56.204Z,49.88
2022-11-01T15:59:02.650Z,52.60
2022-11-01T16:02:09.667Z,44.85
2022-11-01T16:05:20.788Z,45.10
2022-11-01T16:08:28.876Z,55.25
2022-11-01T16:11:39.491Z,46.35
2022-11-01T16:14:47.580Z,56.47
2022-11-01T16:17:55.833Z,41.42
2022-11-01T16:21:09.277Z,47.92
2022-11-01T16:24:22.350Z,47.88
2022-11-01T16:27:31.191Z,59.60
2022-11-01T16:30:40.995Z,63.42
2022-11-01T16:33:47.960Z,65.95
2022-11-01T16:36:55.612Z,62.60
2022-11-01T16:40:22.949Z,75.35
2022-11-01T16:43:31.418Z,59.58
2022-11-01T16:46:41.816Z,60.40
2022-11-01T16:49:52.178Z,52.67
2022-11-01T16:53:01.892Z,54.30
2022-11-01T16:56:35.569Z,56.25
2022-11-01T16:59:39.494Z,60.20
2022-11-01T17:02:45.095Z,68.55
2022-11-01T17:05:56.023Z,65.53
2022-11-01T17:09:04.106Z,62.03
2022-11-01T17:12:12.427Z,54.63
2022-11-01T17:15:19.567Z,50.20
2022-11-01T17:18:28.800Z,69.10
2022-11-01T17:21:34.962Z,57.30
2022-11-01T17:24:43.461Z,48.42
2022-11-01T17:27:51.438Z,49.35
2022-11-01T17:30:57.229Z,48.70
2022-11-01T17:34:03.519Z,55.13
2022-11-01T17:37:10.303Z,41.17
2022-11-01T17:40:25.212Z,49.67
2022-11-01T17:43:33.168Z,50.75
2022-11-01T17:46:38.201Z,46.55
2022-11-01T17:49:50.737Z,39.17
2022-11-01T17:52:56.007Z,53.75
2022-11-01T17:56:04.349Z,48.15
2022-11-01T17:59:10.662Z,44.97
2022-11-01T18:02:16.470Z,59.53
2022-11-01T18:05:23.865Z,45.67
2022-11-01T18:08:30.294Z,49.80
2022-11-01T18:11:41.487Z,45.83
2022-11-01T18:14:54.098Z,44.67
2022-11-01T18:18:04.049Z,43.78
2022-11-01T18:21:14.364Z,46.00
2022-11-01T18:24:29.794Z,44.50
2022-11-01T18:27:45.497Z,39.20
2022-11-01T18:30:53.221Z,48.60
2022-11-01T18:34:05.939Z,43.20
2022-11-01T18:37:22.893Z,48.63
2022-11-01T18:40:30.940Z,49.60
2022-11-01T18:43:41.400Z,47.88
2022-11-01T18:46:53.546Z,47.83
2022-11-01T18:50:01.826Z,45.47
2022-11-01T18:53:15.937Z,51.53
2022-11-01T18:56:23.185Z,46.28
2022-11-01T18:59:36.710Z,44.88
2022-11-01T19:02:44.146Z,56.28
2022-11-01T19:05:51.936Z,54.13
2022-11-01T19:08:58.051Z,50.33
2022-11-01T19:12:06.053Z,45.28
2022-11-01T19:15:19.671Z,50.33
2022-11-01T19:18:27.337Z,54.90
2022-11-01T19:21:35.833Z,51.80
2022-11-01T19:24:41.894Z,47.50
2022-11-01T19:27:47.775Z,47.45
2022-11-01T19:30:58.733Z,45.88
2022-11-01T19:34:05.838Z,43.75
2022-11-01T19:37:20.980Z,48.10
2022-11-01T19:40:28.238Z,44.50
2022-11-01T19:43:37.145Z,36.42
2022-11-01T19:46:46.468Z,46.80
2022-11-01T19:49:51.976Z,47.38
2022-11-01T19:52:58.716Z,41.08
2022-11-01T19:56:04.283Z,44.20
2022-11-01T19:59:14.029Z,38.65
2022-11-01T20:02:22.985Z,38.10
2022-11-01T20:05:32.944Z,39.85
2022-11-01T20:08:40.643Z,36.22
2022-11-01T20:11:46.128Z,47.97
2022-11-01T20:14:51.448Z,39.90
2022-11-01T20:18:03.872Z,33.72
2022-11-01T20:21:09.780Z,39.00
2022-11-01T20:24:15.622Z,36.10
2022-11-01T20:27:22.552Z,37.42
2022-11-01T20:30:27.594Z,38.25
2022-11-01T20:33:41.195Z,37.25
2022-11-01T20:37:07.866Z,38.72
2022-11-01T20:40:12.941Z,37.90
2022-11-01T20:43:17.982Z,37.70
2022-11-01T20:46:24.210Z,39.28
2022-11-01T20:49:31.736Z,39.10
2022-11-01T20:52:40.037Z,39.80
2022-11-01T20:55:45.398Z,38.38
2022-11-01T20:58:56.092Z,39.90
2022-11-01T21:02:01.175Z,38.15
2022-11-01T21:05:18.297Z,36.72
2022-11-01T21:08:25.304Z,41.55
2022-11-01T21:11:45.390Z,35.90
2022-11-01T21:14:50.339Z,40.05
2022-11-01T21:17:55.563Z,37.60
2022-11-01T21:21:04.996Z,36.70
2022-11-01T21:24:26.271Z,38.40
2022-11-01T21:27:31.743Z,37.92
2022-11-01T21:30:37.087Z,33.65
2022-11-01T21:33:42.436Z,36.75
2022-11-01T21:36:50.798Z,37.97
2022-11-01T21:40:01.681Z,37.88
2022-11-01T21:43:20.233Z,39.88
2022-11-01T21:46:26.317Z,34.47
2022-11-01T21:49:32.293Z,38.40
2022-11-01T21:52:39.849Z,38.25
2022-11-01T21:55:45.139Z,36.35
2022-11-01T21:58:50.033Z,38.53
2022-11-01T22:01:57.021Z,40.38
2022-11-01T22:05:02.836Z,41.05
2022-11-01T22:08:12.021Z,34.15
2022-11-01T22:11:23.798Z,36.17
2022-11-01T22:14:29.423Z,33.05
2022-11-01T22:17:34.328Z,32.40
2022-11-01T22:20:49.058Z,32.58
2022-11-01T22:23:57.812Z,36.75
2022-11-01T22:27:03.271Z,38.15
2022-11-01T22:30:09.369Z,37.33
2022-11-01T22:33:14.642Z,35.83
2022-11-01T22:36:23.214Z,37.38
2022-11-01T22:39:32.823Z,33.30
2022-11-01T22:42:38.938Z,30.80
2022-11-01T22:45:44.401Z,45.50
2022-11-01T22:48:49.930Z,31.80
2022-11-01T22:51:56.385Z,35.92
2022-11-01T22:55:07.188Z,41.75
2022-11-01T22:58:29.028Z,33.95
2022-11-01T23:01:34.719Z,31.40
2022-11-01T23:04:40.463Z,32.97
2022-11-01T23:07:46.185Z,31.98
2022-11-01T23:10:54.930Z,33.22
2022-11-01T23:14:17.704Z,32.90
2022-11-01T23:17:24.091Z,30.35
2022-11-01T23:20:29.899Z,25.88
2022-11-01T23:23:37.859Z,28.38
2022-11-01T23:26:45.445Z,28.00
2022-11-01T23:29:52.867Z,30.05
2022-11-01T23:32:59.597Z,30.83
2022-11-01T23:36:06.379Z,27.45
2022-11-01T23:39:13.844Z,25.35
2022-11-01T23:42:24.080Z,32.08
2022-11-01T23:45:31.354Z,31.50
2022-11-01T23:48:43.225Z,30.98
2022-11-01T23:51:49.689Z,35.22
2022-11-01T23:54:55.517Z,33.90
2022-11-01T23:58:04.010Z,39.13
